Time;durP1;ratioP1;P1;durP2;ratioP2;P2;SDS_P1;SDS_P2;PMS_P1;PMS_P2;Temp;Humidity;BMP_temperature;BMP_pressure;BME280_temperature;BME280_humidity;BME280_pressure;Samples;Min_cycle;Max_cycle;Signal;HPM_P1;HPM_P2
2023/11/01 00:00:43;;;;;;;0.50;0.50;;;11.50;99.90;;;;;;5014585;28;20233;-81
2023/11/01 00:03:13;;;;;;;0.65;0.65;;;11.60;99.90;;;;;;5021068;28;20206;-80
2023/11/01 00:05:40;;;;;;;0.60;0.60;;;11.40;99.90;;;;;;5018941;28;20235;-85
2023/11/01 00:08:07;;;;;;;0.50;0.50;;;11.50;99.90;;;;;;5019792;28;21207;-82
2023/11/01 00:10:34;;;;;;;0.70;0.70;;;11.50;99.90;;;;;;5024081;28;20213;-80
2023/11/01 00:13:01;;;;;;;0.50;0.50;;;11.50;99.90;;;;;;5029799;28;20228;-81
2023/11/01 00:15:29;;;;;;;0.50;0.50;;;11.50;99.90;;;;;;5021155;28;20281;-80
2023/11/01 00:17:56;;;;;;;0.70;0.70;;;11.50;99.90;;;;;;5021407;28;20205;-81
2023/11/01 00:20:24;;;;;;;0.98;0.85;;;11.40;99.90;;;;;;5019368;28;20206;-79
2023/11/01 00:22:52;;;;;;;0.50;0.50;;;11.40;99.90;;;;;;5018254;28;20206;-79
2023/11/01 00:25:18;;;;;;;0.47;0.47;;;11.40;99.90;;;;;;5017753;28;20229;-78
2023/11/01 00:27:46;;;;;;;0.50;0.50;;;11.40;99.90;;;;;;5017971;28;20201;-80
2023/11/01 00:30:13;;;;;;;0.50;0.50;;;11.30;99.90;;;;;;5017398;28;20285;-79
2023/11/01 00:32:40;;;;;;;0.60;0.60;;;11.50;99.90;;;;;;5018302;28;20209;-80
2023/11/01 00:35:08;;;;;;;0.50;0.50;;;11.40;99.90;;;;;;5018347;28;20232;-82
2023/11/01 00:37:35;;;;;;;0.50;0.50;;;11.40;99.90;;;;;;5017002;28;20255;-81
2023/11/01 00:40:02;;;;;;;1.42;1.40;;;11.40;99.90;;;;;;5019269;28;20219;-80
2023/11/01 00:42:30;;;;;;;0.50;0.50;;;11.50;99.90;;;;;;5019507;28;20205;-80
2023/11/01 00:44:57;;;;;;;0.43;0.43;;;11.40;99.90;;;;;;5019409;28;20237;-85
2023/11/01 00:47:24;;;;;;;0.50;0.50;;;11.40;99.90;;;;;;5017866;28;20273;-80
2023/11/01 00:49:51;;;;;;;0.88;0.88;;;11.40;99.90;;;;;;5019473;28;20209;-81
2023/11/01 00:52:18;;;;;;;0.40;0.40;;;11.40;99.90;;;;;;5021585;28;20273;-81
2023/11/01 00:54:47;;;;;;;0.50;0.50;;;11.40;99.90;;;;;;5027549;28;20303;-81
2023/11/01 00:57:14;;;;;;;0.70;0.70;;;11.40;99.90;;;;;;5019365;28;20650;-79
2023/11/01 00:59:41;;;;;;;0.50;0.50;;;11.40;99.90;;;;;;5017444;28;20288;-80
2023/11/01 01:02:09;;;;;;;1.08;1.08;;;11.30;99.90;;;;;;5018246;28;20203;-86
2023/11/01 01:04:36;;;;;;;0.40;0.40;;;11.30;99.90;;;;;;5029309;28;20210;-84
2023/11/01 01:07:03;;;;;;;0.80;0.80;;;11.30;99.90;;;;;;5017707;28;20296;-78
2023/11/01 01:09:31;;;;;;;0.50;0.50;;;11.40;99.90;;;;;;5017083;28;20540;-79
2023/11/01 01:11:58;;;;;;;0.77;0.77;;;11.30;99.90;;;;;;5016654;28;20201;-78
2023/11/01 01:14:25;;;;;;;0.50;0.50;;;11.30;99.90;;;;;;5017453;28;20212;-79
2023/11/01 01:16:52;;;;;;;0.50;0.50;;;11.30;99.90;;;;;;5019276;28;20284;-80
2023/11/01 01:19:19;;;;;;;0.50;0.50;;;11.20;99.90;;;;;;5020321;28;20277;-80
2023/11/01 01:21:45;;;;;;;0.40;0.40;;;11.30;99.90;;;;;;5020202;28;20272;-80
2023/11/01 01:24:13;;;;;;;0.60;0.60;;;11.30;99.90;;;;;;5019129;28;20236;-80
2023/11/01 01:26:40;;;;;;;0.70;0.70;;;11.30;99.90;;;;;;5020085;28;20300;-79
2023/11/01 01:29:07;;;;;;;0.43;0.43;;;11.20;99.90;;;;;;5020537;28;20213;-81
2023/11/01 01:31:34;;;;;;;0.50;0.50;;;11.20;99.90;;;;;;5020649;28;20244;-78
2023/11/01 01:34:01;;;;;;;1.05;0.95;;;11.20;99.90;;;;;;5020642;28;20206;-79
2023/11/01 01:36:28;;;;;;;0.82;0.82;;;11.10;99.90;;;;;;5020257;28;20272;-79
2023/11/01 01:38:55;;;;;;;0.50;0.50;;;11.10;99.90;;;;;;5022982;28;20268;-79
2023/11/01 01:41:22;;;;;;;0.50;0.50;;;11.10;99.90;;;;;;5019924;28;20233;-81
2023/11/01 01:43:49;;;;;;;1.10;1.10;;;11.00;99.90;;;;;;5019976;28;20213;-80
2023/11/01 01:46:18;;;;;;;0.70;0.70;;;11.00;99.90;;;;;;5010069;28;20407;-80
2023/11/01 01:48:46;;;;;;;0.60;0.60;;;11.10;99.90;;;;;;5013067;28;20214;-81
2023/11/01 01:51:13;;;;;;;0.50;0.50;;;10.90;99.90;;;;;;5018980;28;20205;-80
2023/11/01 01:53:45;;;;;;;0.40;0.40;;;11.00;99.90;;;;;;5019832;28;20240;-81
2023/11/01 01:56:15;;;;;;;0.40;0.40;;;11.00;99.90;;;;;;5020410;28;20229;-80
2023/11/01 01:58:43;;;;;;;0.90;0.90;;;11.00;99.90;;;;;;5019720;28;20210;-80
2023/11/01 02:01:11;;;;;;;1.17;1.13;;;11.00;99.90;;;;;;5023679;28;20265;-80
2023/11/01 02:03:38;;;;;;;0.55;0.55;;;11.00;99.90;;;;;;5021209;28;20205;-81
2023/11/01 02:06:06;;;;;;;0.95;0.95;;;11.10;99.90;;;;;;5018734;28;20272;-80
2023/11/01 02:08:33;;;;;;;1.30;1.30;;;11.10;99.90;;;;;;5021452;28;20647;-79
2023/11/01 02:11:00;;;;;;;0.50;0.50;;;11.10;99.90;;;;;;5021782;28;20410;-77
2023/11/01 02:13:28;;;;;;;0.40;0.40;;;11.10;99.90;;;;;;5020608;28;20304;-79
2023/11/01 02:15:55;;;;;;;0.60;0.60;;;11.10;99.90;;;;;;5020430;28;20577;-77
2023/11/01 02:18:22;;;;;;;0.50;0.50;;;11.10;99.90;;;;;;5020073;28;20252;-80
2023/11/01 02:20:52;;;;;;;0.65;0.65;;;11.00;99.90;;;;;;5019402;28;20292;-80
2023/11/01 02:23:32;;;;;;;0.40;0.40;;;11.00;99.90;;;;;;5019913;28;20198;-79
2023/11/01 02:26:01;;;;;;;0.40;0.40;;;11.00;99.90;;;;;;5012717;28;20273;-81
2023/11/01 02:28:29;;;;;;;0.50;0.50;;;11.00;99.90;;;;;;5023770;28;20275;-79
2023/11/01 02:30:56;;;;;;;0.45;0.45;;;10.90;99.90;;;;;;5018681;28;20264;-80
2023/11/01 02:33:24;;;;;;;1.23;1.23;;;10.90;99.90;;;;;;5020935;28;20237;-79
2023/11/01 02:35:51;;;;;;;0.40;0.40;;;10.90;99.90;;;;;;5019372;28;20495;-80
2023/11/01 02:38:18;;;;;;;0.40;0.40;;;10.70;99.90;;;;;;5025129;28;20232;-79
2023/11/01 02:40:45;;;;;;;0.60;0.60;;;10.80;99.90;;;;;;5019763;28;20233;-80
2023/11/01 02:43:12;;;;;;;0.50;0.50;;;10.80;99.90;;;;;;5019977;28;20269;-80
2023/11/01 02:45:39;;;;;;;0.40;0.40;;;10.80;99.90;;;;;;5019827;28;20210;-79
2023/11/01 02:48:06;;;;;;;0.50;0.50;;;10.80;99.90;;;;;;5018930;28;20264;-79
2023/11/01 02:50:34;;;;;;;0.40;0.40;;;10.70;99.90;;;;;;5019207;28;20209;-80
2023/11/01 02:53:01;;;;;;;2.28;2.10;;;10.60;99.90;;;;;;5019503;28;20205;-80
2023/11/01 02:55:29;;;;;;;1.27;1.23;;;10.60;99.90;;;;;;5019464;28;20272;-80
2023/11/01 02:57:55;;;;;;;0.40;0.40;;;10.50;99.90;;;;;;5018947;28;20325;-80
2023/11/01 03:00:23;;;;;;;0.95;0.95;;;10.50;99.90;;;;;;5019789;28;20264;-80
2023/11/01 03:02:53;;;;;;;0.50;0.50;;;10.50;99.90;;;;;;5018979;28;20245;-80
2023/11/01 03:05:21;;;;;;;0.63;0.63;;;10.50;99.90;;;;;;5018740;28;20201;-82
2023/11/01 03:07:48;;;;;;;0.50;0.50;;;10.50;99.90;;;;;;5018968;28;20252;-80
2023/11/01 03:10:15;;;;;;;0.50;0.50;;;10.40;99.90;;;;;;5019309;28;20221;-80
2023/11/01 03:12:43;;;;;;;0.70;0.70;;;10.40;99.90;;;;;;5019255;28;20466;-81
2023/11/01 03:15:12;;;;;;;0.50;0.50;;;10.60;99.90;;;;;;5018118;28;20224;-81
2023/11/01 03:17:40;;;;;;;1.88;0.60;;;10.40;99.90;;;;;;5019348;28;20245;-80
2023/11/01 03:20:07;;;;;;;0.50;0.50;;;10.40;99.90;;;;;;5018599;28;20210;-79
2023/11/01 03:22:34;;;;;;;0.77;0.77;;;10.40;99.90;;;;;;5019438;28;20201;-81
2023/11/01 03:25:03;;;;;;;0.50;0.50;;;10.30;99.90;;;;;;5018858;28;20209;-80
2023/11/01 03:27:30;;;;;;;0.70;0.70;;;10.10;99.90;;;;;;5018709;28;20344;-82
2023/11/01 03:29:57;;;;;;;0.82;0.82;;;10.00;99.90;;;;;;5018099;28;20236;-80
2023/11/01 03:32:24;;;;;;;0.50;0.50;;;9.80;99.90;;;;;;5018890;28;20248;-80
2023/11/01 03:34:52;;;;;;;0.45;0.45;;;9.70;99.90;;;;;;5018678;28;20486;-80
2023/11/01 03:37:19;;;;;;;0.60;0.60;;;9.60;99.90;;;;;;5018960;28;20394;-80
2023/11/01 03:39:46;;;;;;;0.50;0.50;;;9.50;99.90;;;;;;5018727;28;20398;-80
2023/11/01 03:42:13;;;;;;;0.77;0.77;;;9.50;99.90;;;;;;5018189;28;20450;-81
2023/11/01 03:44:41;;;;;;;1.35;1.35;;;9.40;99.90;;;;;;5021153;28;20277;-80
2023/11/01 03:47:09;;;;;;;0.60;0.60;;;9.30;99.90;;;;;;5018730;28;20275;-79
2023/11/01 03:49:36;;;;;;;0.50;0.50;;;9.30;99.90;;;;;;5021884;28;20266;-80
2023/11/01 03:52:03;;;;;;;0.60;0.60;;;9.20;99.90;;;;;;5020772;28;20217;-81
2023/11/01 03:54:33;;;;;;;0.50;0.50;;;9.10;99.90;;;;;;5021635;28;20243;-80
2023/11/01 03:57:02;;;;;;;0.50;0.50;;;9.10;99.90;;;;;;5020598;28;20233;-81
2023/11/01 03:59:30;;;;;;;0.60;0.60;;;9.10;99.90;;;;;;5019751;28;20221;-80
2023/11/01 04:01:57;;;;;;;0.50;0.50;;;9.10;99.90;;;;;;5028415;28;20207;-81
2023/11/01 04:04:24;;;;;;;0.68;0.68;;;9.10;99.90;;;;;;5018791;28;20293;-81
2023/11/01 04:06:51;;;;;;;0.60;0.60;;;9.10;99.90;;;;;;5018289;28;20233;-81
2023/11/01 04:09:19;;;;;;;0.50;0.50;;;9.00;99.90;;;;;;5008112;28;20206;-80
2023/11/01 04:11:46;;;;;;;1.02;0.93;;;9.00;99.90;;;;;;5011936;28;20210;-79
2023/11/01 04:14:14;;;;;;;0.60;0.60;;;9.00;99.90;;;;;;5007811;28;20204;-81
2023/11/01 04:16:41;;;;;;;0.50;0.50;;;9.00;99.90;;;;;;5014625;28;20502;-80
2023/11/01 04:19:11;;;;;;;0.60;0.60;;;9.00;99.90;;;;;;5011339;28;20260;-78
2023/11/01 04:21:38;;;;;;;0.40;0.40;;;8.90;99.90;;;;;;5015112;28;20245;-78
2023/11/01 04:24:05;;;;;;;0.50;0.50;;;9.10;99.90;;;;;;5013770;28;20220;-79
2023/11/01 04:26:33;;;;;;;0.50;0.50;;;9.10;99.90;;;;;;5036657;28;20222;-80
2023/11/01 04:29:00;;;;;;;0.70;0.70;;;9.10;99.90;;;;;;5032136;28;20194;-81
2023/11/01 04:31:27;;;;;;;0.98;0.98;;;9.00;99.90;;;;;;5034758;28;20185;-80
2023/11/01 04:33:54;;;;;;;0.70;0.70;;;9.00;99.90;;;;;;5021361;28;20241;-80
2023/11/01 04:36:27;;;;;;;0.75;0.75;;;9.10;99.90;;;;;;5017263;28;20213;-80
2023/11/01 04:38:55;;;;;;;0.50;0.50;;;9.20;99.90;;;;;;5013847;28;20339;-81
2023/11/01 04:41:26;;;;;;;0.55;0.55;;;9.30;99.90;;;;;;5008832;28;20217;-80
2023/11/01 04:43:55;;;;;;;0.73;0.73;;;9.40;99.90;;;;;;5013916;28;20232;-81
2023/11/01 04:46:22;;;;;;;0.50;0.50;;;9.30;99.90;;;;;;5014788;28;20232;-78
2023/11/01 04:48:50;;;;;;;0.77;0.77;;;9.30;99.90;;;;;;5011183;28;20247;-78
2023/11/01 04:51:17;;;;;;;2.08;1.98;;;9.30;99.90;;;;;;5014733;28;20210;-81
2023/11/01 04:53:44;;;;;;;0.50;0.50;;;9.30;99.90;;;;;;5017326;28;20213;-79
2023/11/01 04:56:11;;;;;;;0.70;0.70;;;9.30;99.90;;;;;;5017746;28;20201;-80
2023/11/01 04:58:39;;;;;;;0.50;0.50;;;9.30;99.90;;;;;;5020424;28;20308;-80
2023/11/01 05:01:07;;;;;;;0.60;0.60;;;9.30;99.90;;;;;;5016885;28;20241;-81
2023/11/01 05:03:38;;;;;;;1.13;1.13;;;9.40;99.90;;;;;;5014052;28;20265;-82
2023/11/01 05:06:06;;;;;;;0.60;0.60;;;9.40;99.90;;;;;;5016350;28;20283;-81
2023/11/01 05:08:35;;;;;;;0.90;0.90;;;9.40;99.90;;;;;;5015848;28;20205;-80
2023/11/01 05:11:02;;;;;;;0.60;0.60;;;9.30;99.90;;;;;;5012665;28;20296;-80
2023/11/01 05:13:29;;;;;;;0.95;0.95;;;9.20;99.90;;;;;;5016692;28;20248;-81
2023/11/01 05:15:56;;;;;;;0.98;0.98;;;9.20;99.90;;;;;;5014809;28;20236;-81
2023/11/01 05:18:24;;;;;;;0.50;0.50;;;9.20;99.90;;;;;;5009008;28;20269;-81
2023/11/01 05:20:51;;;;;;;0.50;0.50;;;9.20;99.90;;;;;;5016357;28;20321;-82
2023/11/01 05:23:19;;;;;;;1.30;1.27;;;9.30;99.90;;;;;;5020256;28;20213;-81
2023/11/01 05:25:48;;;;;;;0.40;0.40;;;9.40;99.90;;;;;;5018469;28;20274;-82
2023/11/01 05:28:16;;;;;;;0.50;0.50;;;9.30;99.90;;;;;;5016478;28;20301;-81
2023/11/01 05:30:44;;;;;;;0.50;0.50;;;9.40;99.90;;;;;;5019597;28;20202;-80
2023/11/01 05:33:11;;;;;;;0.50;0.50;;;9.40;99.90;;;;;;5031448;28;20193;-83
2023/11/01 05:35:39;;;;;;;0.60;0.60;;;9.30;99.90;;;;;;5033759;28;20252;-81
2023/11/01 05:38:06;;;;;;;0.82;0.82;;;9.30;99.90;;;;;;5030205;28;20206;-82
2023/11/01 05:40:33;;;;;;;0.60;0.60;;;9.30;99.90;;;;;;5023366;28;20232;-81
2023/11/01 05:43:01;;;;;;;0.50;0.50;;;9.40;99.90;;;;;;5025001;28;20891;-79
2023/11/01 05:45:28;;;;;;;0.50;0.50;;;9.60;99.90;;;;;;5010240;28;20212;-79
2023/11/01 05:47:55;;;;;;;0.50;0.50;;;9.50;99.90;;;;;;5012338;28;20686;-79
2023/11/01 05:50:24;;;;;;;1.15;1.15;;;9.50;99.90;;;;;;5012397;28;20274;-79
2023/11/01 05:52:53;;;;;;;1.90;1.67;;;9.50;99.90;;;;;;5016407;28;20398;-78
2023/11/01 05:55:20;;;;;;;0.70;0.70;;;9.70;99.90;;;;;;5016344;28;20206;-77
2023/11/01 05:57:59;;;;;;;0.90;0.90;;;9.50;99.90;;;;;;5015578;28;20205;-79
2023/11/01 06:00:26;;;;;;;0.90;0.90;;;9.60;99.90;;;;;;5016563;28;20206;-79
2023/11/01 06:02:53;;;;;;;0.50;0.50;;;9.50;99.90;;;;;;5018592;28;20213;-79
2023/11/01 06:05:22;;;;;;;0.98;0.98;;;9.50;99.90;;;;;;5021418;28;20197;-80
2023/11/01 06:07:50;;;;;;;0.95;0.95;;;9.50;99.90;;;;;;5021515;28;20233;-82
2023/11/01 06:10:17;;;;;;;0.80;0.80;;;9.40;99.90;;;;;;5018895;28;20232;-79
2023/11/01 06:12:44;;;;;;;0.50;0.50;;;9.50;99.90;;;;;;5020313;28;20241;-81
2023/11/01 06:15:11;;;;;;;0.70;0.70;;;9.60;99.90;;;;;;5020641;28;20209;-79
2023/11/01 06:17:38;;;;;;;0.40;0.40;;;9.60;99.90;;;;;;5012063;28;20221;-80
2023/11/01 06:20:06;;;;;;;0.50;0.50;;;9.70;99.90;;;;;;5023829;28;20205;-81
2023/11/01 06:22:33;;;;;;;1.00;1.00;;;9.70;99.90;;;;;;5026772;28;20276;-80
2023/11/01 06:25:01;;;;;;;0.50;0.50;;;9.70;99.90;;;;;;5028014;28;20281;-81
2023/11/01 06:27:28;;;;;;;0.80;0.80;;;9.80;99.90;;;;;;5020701;28;20311;-80
2023/11/01 06:29:56;;;;;;;0.90;0.90;;;9.90;99.90;;;;;;5013315;28;20465;-82
2023/11/01 06:32:23;;;;;;;0.50;0.50;;;10.00;99.90;;;;;;5017634;28;20260;-80
2023/11/01 06:34:50;;;;;;;0.50;0.50;;;10.00;99.90;;;;;;5012150;28;20221;-80
2023/11/01 06:37:17;;;;;;;0.60;0.60;;;10.00;99.90;;;;;;5018611;28;20212;-82
2023/11/01 06:39:44;;;;;;;0.60;0.60;;;10.00;99.90;;;;;;5016195;28;20308;-82
2023/11/01 06:42:11;;;;;;;0.50;0.50;;;10.00;99.90;;;;;;5019263;28;20257;-81
2023/11/01 06:44:38;;;;;;;0.52;0.52;;;10.00;99.90;;;;;;5015586;28;20272;-82
2023/11/01 06:47:05;;;;;;;0.47;0.47;;;10.10;99.90;;;;;;5029289;28;20244;-82
2023/11/01 06:49:37;;;;;;;0.50;0.50;;;10.10;99.90;;;;;;5025965;28;20209;-83
2023/11/01 06:52:06;;;;;;;0.68;0.68;;;10.10;99.90;;;;;;5021910;28;20241;-82
2023/11/01 06:54:34;;;;;;;0.77;0.77;;;10.20;99.90;;;;;;5022576;28;20332;-81
2023/11/01 06:57:01;;;;;;;0.50;0.50;;;10.20;99.90;;;;;;5027234;28;20220;-79
2023/11/01 06:59:28;;;;;;;0.95;0.95;;;10.30;99.90;;;;;;5029229;28;20211;-82
2023/11/01 07:01:55;;;;;;;0.50;0.50;;;10.30;99.90;;;;;;5018162;28;20383;-81
2023/11/01 07:04:22;;;;;;;0.88;0.88;;;10.40;99.90;;;;;;5019539;28;20213;-80
2023/11/01 07:06:50;;;;;;;0.63;0.63;;;10.40;99.90;;;;;;5014258;28;20224;-81
2023/11/01 07:09:17;;;;;;;0.50;0.50;;;10.40;99.90;;;;;;5019777;28;20270;-81
2023/11/01 07:11:44;;;;;;;0.70;0.70;;;10.40;99.90;;;;;;5031442;28;20208;-80
2023/11/01 07:14:11;;;;;;;0.65;0.65;;;10.40;99.90;;;;;;5031357;28;20224;-80
2023/11/01 07:16:41;;;;;;;0.60;0.60;;;10.40;99.90;;;;;;5038380;28;20194;-80
2023/11/01 07:19:08;;;;;;;0.93;0.93;;;10.40;99.90;;;;;;5037075;28;20205;-81
2023/11/01 07:21:35;;;;;;;0.52;0.52;;;10.50;99.90;;;;;;5028797;28;20532;-81
2023/11/01 07:24:03;;;;;;;0.50;0.50;;;10.50;99.90;;;;;;5022111;28;20202;-80
2023/11/01 07:26:30;;;;;;;0.50;0.50;;;10.60;99.90;;;;;;5021283;28;20209;-81
2023/11/01 07:28:59;;;;;;;0.70;0.70;;;10.80;99.90;;;;;;5011066;28;20238;-80
2023/11/01 07:31:26;;;;;;;1.30;1.20;;;10.60;99.90;;;;;;5016093;28;20528;-82
2023/11/01 07:33:53;;;;;;;0.50;0.50;;;10.60;99.90;;;;;;5015144;28;20244;-80
2023/11/01 07:36:20;;;;;;;0.50;0.50;;;10.70;99.90;;;;;;5019338;28;20276;-80
2023/11/01 07:38:47;;;;;;;0.75;0.75;;;10.70;99.90;;;;;;5018833;28;20208;-80
2023/11/01 07:41:15;;;;;;;1.15;1.13;;;10.90;99.90;;;;;;5010910;28;20221;-80
2023/11/01 07:43:43;;;;;;;0.50;0.50;;;11.00;99.90;;;;;;5021903;28;20219;-82
2023/11/01 07:46:10;;;;;;;0.80;0.80;;;11.10;99.90;;;;;;5011751;28;20238;-80
2023/11/01 07:48:37;;;;;;;0.57;0.57;;;11.20;99.90;;;;;;5021314;28;20229;-80
2023/11/01 07:51:05;;;;;;;0.50;0.50;;;11.20;99.90;;;;;;5023529;28;20209;-80
2023/11/01 07:53:33;;;;;;;0.77;0.77;;;11.30;99.90;;;;;;5021373;28;20317;-80
2023/11/01 07:56:04;;;;;;;0.50;0.50;;;11.20;99.90;;;;;;5021247;28;20220;-80
2023/11/01 07:58:31;;;;;;;0.65;0.65;;;11.30;99.90;;;;;;5015313;28;20277;-80
2023/11/01 08:00:59;;;;;;;1.33;1.33;;;11.40;99.90;;;;;;5019856;28;20210;-81
2023/11/01 08:03:25;;;;;;;1.20;1.10;;;11.50;99.90;;;;;;5020036;28;20822;-81
2023/11/01 08:05:53;;;;;;;1.83;1.73;;;11.80;99.90;;;;;;5020806;28;20213;-81
2023/11/01 08:08:21;;;;;;;0.70;0.70;;;11.70;99.90;;;;;;5020879;28;20607;-81
2023/11/01 08:10:48;;;;;;;0.60;0.60;;;11.80;99.90;;;;;;5019614;28;20216;-80
2023/11/01 08:13:15;;;;;;;0.60;0.60;;;11.90;99.90;;;;;;5018181;28;20296;-82
2023/11/01 08:15:42;;;;;;;0.60;0.60;;;12.00;99.90;;;;;;5016420;28;20241;-80
2023/11/01 08:18:10;;;;;;;1.45;1.35;;;12.10;99.90;;;;;;5018723;28;20205;-81
2023/11/01 08:20:38;;;;;;;0.88;0.88;;;12.20;99.90;;;;;;5017280;28;20422;-81
2023/11/01 08:23:05;;;;;;;0.70;0.70;;;12.30;99.90;;;;;;5016015;28;20243;-81
2023/11/01 08:25:33;;;;;;;1.75;1.65;;;12.40;99.90;;;;;;5015533;28;20268;-81
2023/11/01 08:28:01;;;;;;;0.50;0.50;;;12.40;99.90;;;;;;5011263;28;20229;-83
2023/11/01 08:30:28;;;;;;;0.50;0.50;;;12.40;99.90;;;;;;5016545;28;20265;-81
2023/11/01 08:32:56;;;;;;;0.70;0.70;;;12.60;99.90;;;;;;5016663;28;20461;-79
2023/11/01 08:35:23;;;;;;;0.50;0.50;;;12.80;99.90;;;;;;5017808;28;20439;-81
2023/11/01 08:37:50;;;;;;;0.70;0.70;;;13.00;99.90;;;;;;5016367;28;20418;-80
2023/11/01 08:40:17;;;;;;;0.60;0.60;;;13.10;99.90;;;;;;5010046;28;20512;-80
2023/11/01 08:42:45;;;;;;;0.87;0.87;;;13.20;99.90;;;;;;5009614;28;20546;-82
2023/11/01 08:45:11;;;;;;;0.60;0.60;;;13.60;99.90;;;;;;5010436;28;20541;-81
2023/11/01 08:47:41;;;;;;;0.60;0.60;;;13.70;99.90;;;;;;5015019;28;20848;-82
2023/11/01 08:50:12;;;;;;;1.33;1.33;;;13.60;99.90;;;;;;5014453;28;20552;-79
2023/11/01 08:52:42;;;;;;;0.60;0.60;;;13.40;99.90;;;;;;5017636;28;20447;-80
2023/11/01 08:55:14;;;;;;;1.37;1.37;;;13.30;99.90;;;;;;5017846;28;20443;-79
2023/11/01 08:57:42;;;;;;;1.00;1.00;;;13.40;99.90;;;;;;5019566;28;20466;-80
2023/11/01 09:00:09;;;;;;;0.90;0.90;;;13.70;99.90;;;;;;5020095;28;20447;-80
2023/11/01 09:02:36;;;;;;;0.50;0.50;;;13.60;99.90;;;;;;5023319;28;20593;-79
2023/11/01 09:05:04;;;;;;;0.73;0.73;;;13.60;99.90;;;;;;5025519;28;20435;-81
2023/11/01 09:07:31;;;;;;;1.63;1.57;;;13.70;99.90;;;;;;5022193;28;20558;-81
2023/11/01 09:09:58;;;;;;;0.50;0.50;;;13.90;99.90;;;;;;5027448;28;20491;-80
2023/11/01 09:12:28;;;;;;;0.50;0.50;;;13.80;99.90;;;;;;5019783;28;20435;-82
2023/11/01 09:14:55;;;;;;;0.57;0.57;;;13.70;99.90;;;;;;5021737;28;20418;-81
2023/11/01 09:17:22;;;;;;;0.93;0.93;;;13.60;99.90;;;;;;5027043;28;20453;-80
2023/11/01 09:19:49;;;;;;;0.70;0.70;;;13.70;99.90;;;;;;5020806;28;20467;-79
2023/11/01 09:22:17;;;;;;;0.60;0.60;;;13.90;99.90;;;;;;5021543;28;20414;-79
2023/11/01 09:24:43;;;;;;;0.60;0.60;;;14.00;99.90;;;;;;5016889;28;20453;-86
2023/11/01 09:27:10;;;;;;;0.60;0.60;;;14.10;99.90;;;;;;5015378;28;20458;-80
2023/11/01 09:29:37;;;;;;;0.60;0.60;;;14.10;99.90;;;;;;5015855;28;20510;-78
2023/11/01 09:32:05;;;;;;;1.33;1.20;;;14.10;99.90;;;;;;5011421;28;20510;-81
2023/11/01 09:34:32;;;;;;;0.60;0.60;;;14.30;99.90;;;;;;5017825;28;20713;-82
2023/11/01 09:36:59;;;;;;;1.00;1.00;;;14.50;99.90;;;;;;5016742;28;20451;-81
2023/11/01 09:39:27;;;;;;;1.23;1.23;;;14.90;99.90;;;;;;5015499;28;20445;-81
2023/11/01 09:41:53;;;;;;;0.80;0.80;;;15.20;99.90;;;;;;5019028;28;20459;-81
2023/11/01 09:44:20;;;;;;;0.60;0.60;;;15.20;99.90;;;;;;5020243;28;20397;-82
2023/11/01 09:46:49;;;;;;;0.50;0.50;;;15.20;99.90;;;;;;5021408;28;20461;-81
2023/11/01 09:49:16;;;;;;;0.60;0.60;;;15.30;99.90;;;;;;5013416;28;20567;-80
2023/11/01 09:51:44;;;;;;;0.50;0.50;;;15.50;99.90;;;;;;5021230;28;20421;-81
2023/11/01 09:54:13;;;;;;;0.50;0.50;;;15.40;99.90;;;;;;5022509;28;20421;-82
2023/11/01 09:56:44;;;;;;;0.60;0.60;;;15.20;99.90;;;;;;5024859;28;20464;-80
2023/11/01 09:59:12;;;;;;;0.90;0.90;;;14.90;99.90;;;;;;5021938;28;20532;-80
2023/11/01 10:01:40;;;;;;;0.60;0.60;;;14.90;99.90;;;;;;5019187;28;20414;-81
2023/11/01 10:04:08;;;;;;;2.00;1.00;;;15.00;99.90;;;;;;5019312;28;20401;-83
2023/11/01 10:06:36;;;;;;;0.70;0.70;;;15.30;99.90;;;;;;5018794;28;20431;-80
2023/11/01 10:09:04;;;;;;;0.80;0.80;;;15.40;99.90;;;;;;5020000;28;20485;-82
2023/11/01 10:11:32;;;;;;;0.60;0.60;;;15.40;99.90;;;;;;5020395;28;20439;-81
2023/11/01 10:14:00;;;;;;;0.90;0.90;;;15.30;99.90;;;;;;5016679;28;20461;-79
2023/11/01 10:16:27;;;;;;;0.80;0.80;;;15.20;99.90;;;;;;5019139;28;20473;-80
2023/11/01 10:18:55;;;;;;;0.60;0.60;;;15.20;99.90;;;;;;5019389;28;20439;-80
2023/11/01 10:21:27;;;;;;;0.60;0.60;;;15.20;99.90;;;;;;5020070;28;20502;-80
2023/11/01 10:23:58;;;;;;;0.80;0.80;;;15.20;99.90;;;;;;5011836;28;20418;-81
2023/11/01 10:26:29;;;;;;;1.33;1.33;;;15.40;99.90;;;;;;5021284;28;20473;-83
2023/11/01 10:28:57;;;;;;;0.70;0.70;;;15.60;99.90;;;;;;5001669;28;20449;-79
2023/11/01 10:31:25;;;;;;;0.80;0.80;;;15.70;99.90;;;;;;5017815;28;20421;-81
2023/11/01 10:33:52;;;;;;;0.60;0.60;;;16.00;99.90;;;;;;5020522;28;20953;-80
2023/11/01 10:36:20;;;;;;;0.90;0.90;;;15.90;99.90;;;;;;5025990;28;20426;-80
2023/11/01 10:38:51;;;;;;;0.70;0.70;;;15.90;99.90;;;;;;5019489;28;20474;-81
2023/11/01 10:41:19;;;;;;;0.60;0.60;;;16.20;99.90;;;;;;5019453;28;20459;-79
2023/11/01 10:43:46;;;;;;;1.43;1.33;;;16.30;99.90;;;;;;5011957;28;20489;-83
2023/11/01 10:46:17;;;;;;;0.70;0.70;;;16.40;99.90;;;;;;5018791;28;20441;-80
2023/11/01 10:48:45;;;;;;;0.60;0.60;;;16.40;99.90;;;;;;5012498;28;20831;-81
2023/11/01 10:51:13;;;;;;;0.60;0.60;;;16.40;99.90;;;;;;5017406;28;20418;-82
2023/11/01 10:53:41;;;;;;;0.97;0.97;;;16.40;99.90;;;;;;5011942;28;20462;-83
2023/11/01 10:56:09;;;;;;;0.60;0.60;;;16.30;99.90;;;;;;5022063;28;20418;-80
2023/11/01 10:58:43;;;;;;;1.33;1.20;;;16.30;99.90;;;;;;5015237;28;20552;-82
2023/11/01 11:01:20;;;;;;;0.80;0.80;;;16.30;99.90;;;;;;5013709;28;20435;-81
2023/11/01 11:04:20;;;;;;;0.60;0.60;;;16.30;99.90;;;;;;5020628;28;20496;-81
2023/11/01 11:06:57;;;;;;;0.60;0.60;;;16.30;99.90;;;;;;5017426;28;20466;-82
2023/11/01 11:09:25;;;;;;;0.50;0.50;;;16.50;99.90;;;;;;5023450;28;20494;-79
2023/11/01 11:12:13;;;;;;;0.70;0.70;;;16.30;99.90;;;;;;5024520;28;20429;-85
2023/11/01 11:14:42;;;;;;;0.87;0.87;;;16.20;99.90;;;;;;5019654;28;20433;-80
2023/11/01 11:17:12;;;;;;;0.60;0.60;;;16.00;99.90;;;;;;5024428;28;20494;-80
2023/11/01 11:20:04;;;;;;;0.70;0.70;;;15.80;99.90;;;;;;5014173;28;20486;-79
2023/11/01 11:23:00;;;;;;;0.50;0.50;;;15.60;99.90;;;;;;5014108;28;20436;-83
2023/11/01 11:25:37;;;;;;;0.80;0.80;;;15.30;99.90;;;;;;5009346;28;20426;-81
2023/11/01 11:28:05;;;;;;;0.50;0.50;;;15.20;99.90;;;;;;5015739;28;20461;-81
2023/11/01 11:30:44;;;;;;;0.60;0.60;;;15.20;99.90;;;;;;5011079;28;20438;-80
2023/11/01 11:33:12;;;;;;;0.60;0.60;;;15.00;99.90;;;;;;5009442;28;20466;-81
2023/11/01 11:35:40;;;;;;;0.60;0.60;;;15.00;99.90;;;;;;5013656;28;20634;-79
2023/11/01 11:38:34;;;;;;;0.60;0.60;;;15.10;99.90;;;;;;5022778;28;20439;-80
2023/11/01 11:41:26;;;;;;;0.87;0.87;;;15.50;99.90;;;;;;5014794;28;20425;-84
2023/11/01 11:44:02;;;;;;;0.60;0.60;;;15.70;99.90;;;;;;5010694;28;20444;-79
2023/11/01 11:46:34;;;;;;;0.60;0.60;;;15.60;99.90;;;;;;5021261;28;21009;-84
2023/11/01 11:49:04;;;;;;;0.60;0.60;;;15.50;99.90;;;;;;5005739;28;20491;-81
2023/11/01 11:51:34;;;;;;;0.60;0.60;;;15.60;99.90;;;;;;5024165;28;20525;-84
2023/11/01 11:54:11;;;;;;;0.60;0.60;;;15.60;99.90;;;;;;5012919;28;20406;-81
2023/11/01 11:56:39;;;;;;;0.60;0.60;;;15.70;99.90;;;;;;5015820;28;20480;-81
2023/11/01 11:59:07;;;;;;;0.50;0.50;;;15.70;99.90;;;;;;5027945;28;20662;-80
2023/11/01 12:01:34;;;;;;;0.60;0.60;;;15.60;99.90;;;;;;5020528;28;20485;-83
2023/11/01 12:04:04;;;;;;;0.53;0.53;;;15.30;99.90;;;;;;5025964;28;20424;-81
2023/11/01 12:06:50;;;;;;;0.97;0.97;;;15.40;99.90;;;;;;5022362;28;20450;-83
2023/11/01 12:09:19;;;;;;;0.50;0.50;;;15.20;99.90;;;;;;5031541;28;20485;-79
2023/11/01 12:11:49;;;;;;;0.70;0.70;;;15.30;99.90;;;;;;5018989;28;20923;-85
2023/11/01 12:14:18;;;;;;;0.60;0.60;;;15.40;99.90;;;;;;5025683;28;20461;-80
2023/11/01 12:16:46;;;;;;;1.63;1.53;;;15.40;99.90;;;;;;5020015;28;20481;-83
2023/11/01 12:19:19;;;;;;;2.90;1.70;;;15.40;99.90;;;;;;5019845;28;20686;-81
2023/11/01 12:21:58;;;;;;;2.33;1.73;;;15.40;99.90;;;;;;5018912;28;20413;-85
2023/11/01 12:24:28;;;;;;;1.53;1.43;;;15.50;99.90;;;;;;5019934;28;20455;-82
2023/11/01 12:27:09;;;;;;;0.80;0.80;;;15.60;99.90;;;;;;5014264;28;20718;-84
2023/11/01 12:29:41;;;;;;;1.83;1.13;;;15.70;99.90;;;;;;5019862;28;20839;-81
2023/11/01 12:32:22;;;;;;;0.60;0.60;;;15.70;99.90;;;;;;5024435;28;20647;-81
2023/11/01 12:34:49;;;;;;;1.80;1.70;;;15.60;99.90;;;;;;5016415;28;20442;-81
2023/11/01 12:37:24;;;;;;;0.70;0.70;;;15.40;99.90;;;;;;5024156;28;20443;-81
2023/11/01 12:40:11;;;;;;;0.80;0.80;;;15.40;99.90;;;;;;5020850;28;20522;-80
2023/11/01 12:42:49;;;;;;;0.60;0.60;;;15.40;99.90;;;;;;5016279;28;20440;-80
2023/11/01 12:45:19;;;;;;;0.90;0.90;;;15.20;99.90;;;;;;5013354;28;20459;-84
2023/11/01 12:47:53;;;;;;;0.50;0.50;;;15.20;99.90;;;;;;5019857;28;20447;-83
2023/11/01 12:50:33;;;;;;;0.60;0.60;;;15.20;99.90;;;;;;5019747;28;20445;-81
2023/11/01 12:53:00;;;;;;;0.60;0.60;;;15.30;99.90;;;;;;5020488;28;20497;-81
2023/11/01 12:55:28;;;;;;;0.60;0.60;;;15.20;99.90;;;;;;5021374;28;20471;-84